»·PEaware :: N320SB PHKO-PHNL

N320SB :: PHKO-PHNL

FLIGHT INFORMATION

Flight Status: Arrived
Operator: Privately registered:
United States
More flights under this callsign
Pilot: Felipe S. (20017)
Aircraft: AIRBUS A320
(A320)
More flights by this aircraft type
Origin: PHKO Kona Intl At Keahole
United States
Destination: PHNL Honolulu Intl
United States
More flights between these airports :: More routes between these airports
Route: AMERY4 TYPHO HOKLA JULLE JULLE5
File this flight plan on PilotEdge
Remarks: PBN / A1B1C1D1O1S1 DOF / 180810 REG / N320SB PER / C RMK / TCAS SIMBRIEF
Altitude:
(Current/Filed)
22,000ft
Speed:
(Current/Filed)
386kts
Departed: 09-Aug-18 06:03 PM
Arrived: 09-Aug-18 06:38 PM
Distance/Time
Traveled:
142nm/0:35
Distance/Time
To Go:
Arrived

Flight Plot

Page will automatically refresh every two minutes.


Map Options




Map Legend


Flown Route
Filed Route
Departure Airport
Arrival Airport
Navaid (VOR, NDB)
Fix

Horizontal Profiles

Position Reports

Time Latitude Longitude Heading Altitude Ground
Speed
09-Aug-18 17:39 19.727623 -156.042379 96 61ft 0kts
09-Aug-18 17:40 19.727623 -156.042379 96 61ft 0kts
09-Aug-18 17:41 19.727623 -156.042379 96 61ft 0kts
09-Aug-18 17:42 19.727623 -156.042379 96 61ft 0kts
09-Aug-18 17:43 19.727623 -156.042379 96 61ft 0kts
09-Aug-18 17:44 19.727623 -156.042379 96 61ft 0kts
09-Aug-18 17:45 19.727623 -156.042379 96 61ft 0kts
09-Aug-18 17:46 19.727623 -156.042379 96 61ft 0kts
09-Aug-18 17:47 19.727623 -156.042379 96 61ft 0kts
09-Aug-18 17:48 19.727623 -156.042379 96 61ft 0kts
09-Aug-18 17:49 19.727623 -156.042379 96 61ft 0kts
09-Aug-18 17:50 19.727623 -156.042379 96 61ft 0kts
09-Aug-18 17:51 19.727623 -156.042379 96 61ft 0kts
09-Aug-18 17:52 19.727623 -156.042379 96 61ft 0kts
09-Aug-18 17:53 19.727633 -156.042483 96 61ft 2kts
09-Aug-18 17:54 19.727667 -156.042819 95 61ft 0kts
09-Aug-18 17:55 19.727667 -156.042816 95 61ft 0kts
09-Aug-18 17:56 19.727667 -156.042814 95 61ft 0kts
09-Aug-18 17:57 19.727754 -156.043773 351 61ft 8kts
09-Aug-18 17:58 19.731101 -156.043499 4 61ft 12kts
09-Aug-18 17:59 19.735203 -156.043119 2 61ft 17kts
09-Aug-18 18:00 19.738844 -156.043448 5 61ft 11kts
09-Aug-18 18:01 19.744076 -156.042903 5 61ft 15kts
09-Aug-18 18:02 19.748354 -156.042479 4 61ft 17kts
09-Aug-18 18:03 19.753229 -156.042007 356 61ft 16kts
09-Aug-18 18:04 19.747105 -156.044849 185 61ft 119kts
09-Aug-18 18:05 19.703882 -156.061700 234 2527ft 215kts
09-Aug-18 18:06 19.733036 -156.124305 317 5769ft 288kts
09-Aug-18 18:07 19.795171 -156.183145 318 9904ft 308kts
09-Aug-18 18:08 19.855999 -156.255659 303 13127ft 347kts
09-Aug-18 18:09 19.911872 -156.342298 303 16427ft 365kts
09-Aug-18 18:10 19.970860 -156.433082 303 19380ft 379kts
09-Aug-18 18:11 20.031870 -156.526938 302 21867ft 391kts
09-Aug-18 18:12 20.093621 -156.622051 302 22103ft 391kts
09-Aug-18 18:13 20.155163 -156.716967 302 22100ft 392kts
09-Aug-18 18:14 20.217829 -156.812218 306 22102ft 391kts
09-Aug-18 18:15 20.293643 -156.894886 314 22113ft 391kts
09-Aug-18 18:16 20.372067 -156.974230 314 22109ft 390kts
09-Aug-18 18:17 20.448369 -157.051570 314 22137ft 396kts
09-Aug-18 18:18 20.528163 -157.132461 314 22142ft 395kts
09-Aug-18 18:19 20.607829 -157.213312 314 22144ft 395kts
09-Aug-18 18:20 20.687202 -157.294346 314 22140ft 395kts
09-Aug-18 18:21 20.764759 -157.374392 314 21395ft 368kts
09-Aug-18 18:22 20.837000 -157.449038 314 20516ft 360kts
09-Aug-18 18:23 20.908632 -157.523172 315 18613ft 355kts
09-Aug-18 18:24 20.968781 -157.605043 288 16574ft 349kts
09-Aug-18 18:25 21.000135 -157.702420 287 14629ft 345kts
09-Aug-18 18:26 21.030987 -157.799111 287 12615ft 340kts
09-Aug-18 18:27 21.060909 -157.893204 287 10784ft 322kts
09-Aug-18 18:28 21.101543 -157.973188 301 8123ft 301kts
09-Aug-18 18:29 21.145878 -158.044738 305 6768ft 282kts
09-Aug-18 18:30 21.190367 -158.113443 305 5350ft 278kts
09-Aug-18 18:31 21.235856 -158.169263 321 4877ft 220kts
09-Aug-18 18:32 21.286371 -158.196182 16 4317ft 195kts
09-Aug-18 18:33 21.305153 -158.154822 91 3663ft 162kts
09-Aug-18 18:34 21.306187 -158.107255 93 3037ft 160kts
09-Aug-18 18:35 21.306511 -158.058994 90 2167ft 162kts
09-Aug-18 18:36 21.306582 -158.018003 87 1432ft 126kts
09-Aug-18 18:37 21.306577 -157.980504 87 746ft 124kts
09-Aug-18 18:38 21.306767 -157.943731 86 73ft 123kts
09-Aug-18 18:39 21.306804 -157.928953 90 27ft 21kts
09-Aug-18 18:40 21.307403 -157.920801 60 27ft 22kts
09-Aug-18 18:41 21.309673 -157.917021 297 27ft 4kts
09-Aug-18 18:42 21.309605 -157.920461 270 27ft 25kts
09-Aug-18 18:43 21.311844 -157.925188 322 27ft 16kts
09-Aug-18 18:44 21.312929 -157.924020 135 27ft 6kts
09-Aug-18 18:45 21.312512 -157.923719 141 27ft 0kts

Navigation Log

Ident Type
Flight plan parsing failed, navigation log unavailable